sensor_id;sensor_type;location;lat;lon;timestamp;P1;durP1;ratioP1;P2;durP2;ratioP2
69053;SDS011;56125;52.242;4.756;2023-06-26T00:04:07;7.50;;;3.88;;
69053;SDS011;56125;52.242;4.756;2023-06-26T00:09:14;5.30;;;3.50;;
69053;SDS011;56125;52.242;4.756;2023-06-26T00:14:15;5.97;;;3.83;;
69053;SDS011;56125;52.242;4.756;2023-06-26T00:19:16;5.87;;;3.77;;
69053;SDS011;56125;52.242;4.756;2023-06-26T00:24:18;4.85;;;3.65;;
69053;SDS011;56125;52.242;4.756;2023-06-26T00:29:19;4.73;;;3.67;;
69053;SDS011;56125;52.242;4.756;2023-06-26T00:34:20;5.43;;;4.05;;
69053;SDS011;56125;52.242;4.756;2023-06-26T00:39:21;5.57;;;3.57;;
69053;SDS011;56125;52.242;4.756;2023-06-26T00:44:22;4.70;;;3.75;;
69053;SDS011;56125;52.242;4.756;2023-06-26T00:49:23;7.77;;;3.40;;
69053;SDS011;56125;52.242;4.756;2023-06-26T00:54:24;9.00;;;3.10;;
69053;SDS011;56125;52.242;4.756;2023-06-26T00:59:26;6.60;;;3.77;;
69053;SDS011;56125;52.242;4.756;2023-06-26T01:04:28;6.72;;;3.30;;
69053;SDS011;56125;52.242;4.756;2023-06-26T01:09:33;6.17;;;3.20;;
69053;SDS011;56125;52.242;4.756;2023-06-26T01:14:35;7.95;;;3.17;;
69053;SDS011;56125;52.242;4.756;2023-06-26T01:19:36;9.00;;;3.27;;
69053;SDS011;56125;52.242;4.756;2023-06-26T01:24:38;7.65;;;3.08;;
69053;SDS011;56125;52.242;4.756;2023-06-26T01:29:40;5.70;;;2.80;;
69053;SDS011;56125;52.242;4.756;2023-06-26T01:34:43;9.13;;;3.35;;
69053;SDS011;56125;52.242;4.756;2023-06-26T01:39:45;5.43;;;2.80;;
69053;SDS011;56125;52.242;4.756;2023-06-26T01:44:46;7.20;;;3.15;;
69053;SDS011;56125;52.242;4.756;2023-06-26T01:55:10;8.98;;;3.03;;
69053;SDS011;56125;52.242;4.756;2023-06-26T02:00:17;9.47;;;3.17;;
69053;SDS011;56125;52.242;4.756;2023-06-26T02:05:20;8.73;;;3.30;;
69053;SDS011;56125;52.242;4.756;2023-06-26T02:10:21;10.33;;;3.03;;
69053;SDS011;56125;52.242;4.756;2023-06-26T02:15:22;6.55;;;3.30;;
69053;SDS011;56125;52.242;4.756;2023-06-26T02:20:23;6.70;;;3.10;;
69053;SDS011;56125;52.242;4.756;2023-06-26T02:25:24;10.55;;;3.45;;
69053;SDS011;56125;52.242;4.756;2023-06-26T02:30:26;11.20;;;3.40;;
69053;SDS011;56125;52.242;4.756;2023-06-26T02:35:27;11.30;;;3.40;;
69053;SDS011;56125;52.242;4.756;2023-06-26T02:40:28;8.93;;;3.10;;
69053;SDS011;56125;52.242;4.756;2023-06-26T02:45:29;10.18;;;3.40;;
69053;SDS011;56125;52.242;4.756;2023-06-26T02:50:30;10.43;;;3.33;;
69053;SDS011;56125;52.242;4.756;2023-06-26T02:55:31;8.77;;;3.28;;
69053;SDS011;56125;52.242;4.756;2023-06-26T03:00:34;9.37;;;3.20;;
69053;SDS011;56125;52.242;4.756;2023-06-26T03:05:35;7.60;;;2.90;;
69053;SDS011;56125;52.242;4.756;2023-06-26T03:10:36;8.60;;;3.20;;
69053;SDS011;56125;52.242;4.756;2023-06-26T03:15:37;10.02;;;3.15;;
69053;SDS011;56125;52.242;4.756;2023-06-26T03:20:38;8.70;;;3.03;;
69053;SDS011;56125;52.242;4.756;2023-06-26T03:25:39;10.68;;;2.95;;
69053;SDS011;56125;52.242;4.756;2023-06-26T03:30:40;10.77;;;3.27;;
69053;SDS011;56125;52.242;4.756;2023-06-26T03:35:41;11.02;;;3.55;;
69053;SDS011;56125;52.242;4.756;2023-06-26T03:40:42;8.53;;;3.20;;
69053;SDS011;56125;52.242;4.756;2023-06-26T03:45:43;8.50;;;2.88;;
69053;SDS011;56125;52.242;4.756;2023-06-26T03:50:44;5.67;;;2.70;;
69053;SDS011;56125;52.242;4.756;2023-06-26T03:55:45;6.60;;;2.80;;
69053;SDS011;56125;52.242;4.756;2023-06-26T04:00:46;9.13;;;2.33;;
69053;SDS011;56125;52.242;4.756;2023-06-26T04:05:47;6.13;;;2.60;;
69053;SDS011;56125;52.242;4.756;2023-06-26T04:10:48;4.20;;;2.17;;
69053;SDS011;56125;52.242;4.756;2023-06-26T04:15:52;6.32;;;2.58;;
69053;SDS011;56125;52.242;4.756;2023-06-26T04:21:09;7.20;;;2.40;;
69053;SDS011;56125;52.242;4.756;2023-06-26T04:26:14;5.13;;;2.50;;
69053;SDS011;56125;52.242;4.756;2023-06-26T04:31:15;5.03;;;2.03;;
69053;SDS011;56125;52.242;4.756;2023-06-26T04:36:17;3.53;;;1.90;;
69053;SDS011;56125;52.242;4.756;2023-06-26T04:41:18;5.63;;;1.87;;
69053;SDS011;56125;52.242;4.756;2023-06-26T04:46:19;9.45;;;2.50;;
69053;SDS011;56125;52.242;4.756;2023-06-26T04:51:20;4.90;;;2.00;;
69053;SDS011;56125;52.242;4.756;2023-06-26T04:56:21;3.92;;;1.70;;
69053;SDS011;56125;52.242;4.756;2023-06-26T05:01:22;5.33;;;1.80;;
69053;SDS011;56125;52.242;4.756;2023-06-26T05:06:23;3.33;;;1.92;;
69053;SDS011;56125;52.242;4.756;2023-06-26T05:11:24;3.07;;;1.87;;
69053;SDS011;56125;52.242;4.756;2023-06-26T05:16:25;3.80;;;1.80;;
69053;SDS011;56125;52.242;4.756;2023-06-26T05:21:27;5.77;;;1.90;;
69053;SDS011;56125;52.242;4.756;2023-06-26T05:26:28;8.07;;;2.30;;
69053;SDS011;56125;52.242;4.756;2023-06-26T05:31:30;5.77;;;1.80;;
69053;SDS011;56125;52.242;4.756;2023-06-26T05:36:34;3.83;;;1.45;;
69053;SDS011;56125;52.242;4.756;2023-06-26T05:41:36;5.57;;;1.77;;
69053;SDS011;56125;52.242;4.756;2023-06-26T05:46:37;7.53;;;2.17;;
69053;SDS011;56125;52.242;4.756;2023-06-26T05:51:38;3.97;;;1.60;;
69053;SDS011;56125;52.242;4.756;2023-06-26T05:56:40;5.00;;;1.92;;
69053;SDS011;56125;52.242;4.756;2023-06-26T06:01:41;5.70;;;2.20;;
69053;SDS011;56125;52.242;4.756;2023-06-26T06:06:42;5.20;;;2.20;;
69053;SDS011;56125;52.242;4.756;2023-06-26T06:11:43;5.23;;;1.80;;
69053;SDS011;56125;52.242;4.756;2023-06-26T06:16:44;7.18;;;1.60;;
69053;SDS011;56125;52.242;4.756;2023-06-26T06:21:45;7.60;;;1.70;;
69053;SDS011;56125;52.242;4.756;2023-06-26T06:26:46;6.88;;;2.10;;
69053;SDS011;56125;52.242;4.756;2023-06-26T06:31:47;5.23;;;1.77;;
69053;SDS011;56125;52.242;4.756;2023-06-26T06:36:48;5.18;;;1.50;;
69053;SDS011;56125;52.242;4.756;2023-06-26T06:41:50;4.00;;;1.60;;
69053;SDS011;56125;52.242;4.756;2023-06-26T06:46:51;2.72;;;1.40;;
69053;SDS011;56125;52.242;4.756;2023-06-26T06:51:52;5.97;;;1.43;;
69053;SDS011;56125;52.242;4.756;2023-06-26T06:56:53;5.55;;;1.40;;
69053;SDS011;56125;52.242;4.756;2023-06-26T07:01:54;5.10;;;1.30;;
69053;SDS011;56125;52.242;4.756;2023-06-26T07:06:55;2.38;;;1.23;;
69053;SDS011;56125;52.242;4.756;2023-06-26T07:11:56;6.33;;;1.20;;
69053;SDS011;56125;52.242;4.756;2023-06-26T07:16:58;2.83;;;1.10;;
69053;SDS011;56125;52.242;4.756;2023-06-26T07:21:59;5.50;;;1.37;;
69053;SDS011;56125;52.242;4.756;2023-06-26T07:27:00;3.65;;;1.30;;
69053;SDS011;56125;52.242;4.756;2023-06-26T07:32:01;5.00;;;1.30;;
69053;SDS011;56125;52.242;4.756;2023-06-26T07:37:02;6.63;;;1.50;;
69053;SDS011;56125;52.242;4.756;2023-06-26T07:42:03;3.23;;;1.10;;
69053;SDS011;56125;52.242;4.756;2023-06-26T07:47:04;3.17;;;1.10;;
69053;SDS011;56125;52.242;4.756;2023-06-26T07:52:06;4.07;;;1.40;;
69053;SDS011;56125;52.242;4.756;2023-06-26T07:57:07;5.45;;;1.23;;
69053;SDS011;56125;52.242;4.756;2023-06-26T08:02:09;3.07;;;0.90;;
69053;SDS011;56125;52.242;4.756;2023-06-26T08:07:10;4.63;;;1.30;;
69053;SDS011;56125;52.242;4.756;2023-06-26T08:12:11;2.97;;;1.30;;
69053;SDS011;56125;52.242;4.756;2023-06-26T08:17:12;4.38;;;1.48;;
69053;SDS011;56125;52.242;4.756;2023-06-26T08:22:13;5.13;;;1.10;;
69053;SDS011;56125;52.242;4.756;2023-06-26T08:27:14;4.53;;;1.20;;
69053;SDS011;56125;52.242;4.756;2023-06-26T08:32:15;3.53;;;1.10;;
69053;SDS011;56125;52.242;4.756;2023-06-26T08:37:16;6.25;;;1.17;;
69053;SDS011;56125;52.242;4.756;2023-06-26T08:42:17;3.00;;;1.13;;
69053;SDS011;56125;52.242;4.756;2023-06-26T08:47:18;2.55;;;1.23;;
69053;SDS011;56125;52.242;4.756;2023-06-26T08:52:22;4.60;;;1.33;;
69053;SDS011;56125;52.242;4.756;2023-06-26T08:57:25;5.15;;;1.02;;
69053;SDS011;56125;52.242;4.756;2023-06-26T09:02:28;4.87;;;1.20;;
69053;SDS011;56125;52.242;4.756;2023-06-26T09:07:29;4.47;;;1.00;;
69053;SDS011;56125;52.242;4.756;2023-06-26T09:12:30;2.20;;;1.10;;
69053;SDS011;56125;52.242;4.756;2023-06-26T09:17:38;1.95;;;1.05;;
69053;SDS011;56125;52.242;4.756;2023-06-26T09:22:42;3.63;;;1.10;;
69053;SDS011;56125;52.242;4.756;2023-06-26T09:27:47;3.08;;;1.10;;
69053;SDS011;56125;52.242;4.756;2023-06-26T09:32:48;6.03;;;1.30;;
69053;SDS011;56125;52.242;4.756;2023-06-26T09:37:51;2.15;;;0.90;;
69053;SDS011;56125;52.242;4.756;2023-06-26T09:42:52;4.90;;;1.00;;
69053;SDS011;56125;52.242;4.756;2023-06-26T09:47:53;3.88;;;1.27;;
69053;SDS011;56125;52.242;4.756;2023-06-26T09:52:54;3.50;;;0.90;;
69053;SDS011;56125;52.242;4.756;2023-06-26T09:57:56;2.45;;;0.90;;
69053;SDS011;56125;52.242;4.756;2023-06-26T10:02:59;3.17;;;1.07;;
69053;SDS011;56125;52.242;4.756;2023-06-26T10:08:00;4.95;;;1.15;;
69053;SDS011;56125;52.242;4.756;2023-06-26T10:13:08;3.97;;;1.30;;
69053;SDS011;56125;52.242;4.756;2023-06-26T10:18:17;3.70;;;1.20;;
69053;SDS011;56125;52.242;4.756;2023-06-26T10:23:19;5.57;;;0.97;;
69053;SDS011;56125;52.242;4.756;2023-06-26T10:28:22;2.63;;;1.75;;
69053;SDS011;56125;52.242;4.756;2023-06-26T10:33:25;4.30;;;1.00;;
69053;SDS011;56125;52.242;4.756;2023-06-26T10:38:35;6.40;;;1.00;;
69053;SDS011;56125;52.242;4.756;2023-06-26T10:49:01;3.80;;;0.95;;
69053;SDS011;56125;52.242;4.756;2023-06-26T10:54:03;4.37;;;1.20;;
69053;SDS011;56125;52.242;4.756;2023-06-26T10:59:14;6.38;;;1.10;;
69053;SDS011;56125;52.242;4.756;2023-06-26T11:04:22;4.10;;;1.03;;
69053;SDS011;56125;52.242;4.756;2023-06-26T11:15:12;3.73;;;0.93;;
69053;SDS011;56125;52.242;4.756;2023-06-26T11:20:14;5.07;;;1.00;;
69053;SDS011;56125;52.242;4.756;2023-06-26T11:25:16;1.87;;;0.80;;
69053;SDS011;56125;52.242;4.756;2023-06-26T11:30:23;4.70;;;0.90;;
69053;SDS011;56125;52.242;4.756;2023-06-26T11:35:25;4.30;;;1.50;;
69053;SDS011;56125;52.242;4.756;2023-06-26T11:40:31;4.10;;;0.85;;
69053;SDS011;56125;52.242;4.756;2023-06-26T11:45:34;6.97;;;1.00;;
69053;SDS011;56125;52.242;4.756;2023-06-26T11:50:36;3.80;;;1.10;;
69053;SDS011;56125;52.242;4.756;2023-06-26T11:55:42;5.80;;;1.17;;
69053;SDS011;56125;52.242;4.756;2023-06-26T12:00:43;2.47;;;0.95;;
69053;SDS011;56125;52.242;4.756;2023-06-26T12:05:44;4.70;;;0.97;;
69053;SDS011;56125;52.242;4.756;2023-06-26T12:10:45;4.97;;;1.08;;
69053;SDS011;56125;52.242;4.756;2023-06-26T12:15:46;3.00;;;1.03;;
69053;SDS011;56125;52.242;4.756;2023-06-26T12:20:48;3.65;;;0.90;;
69053;SDS011;56125;52.242;4.756;2023-06-26T12:25:49;1.43;;;0.83;;
69053;SDS011;56125;52.242;4.756;2023-06-26T12:36:20;5.80;;;1.00;;
69053;SDS011;56125;52.242;4.756;2023-06-26T12:41:24;3.72;;;1.00;;
69053;SDS011;56125;52.242;4.756;2023-06-26T12:46:34;4.27;;;1.10;;
69053;SDS011;56125;52.242;4.756;2023-06-26T12:51:38;3.08;;;1.10;;
69053;SDS011;56125;52.242;4.756;2023-06-26T12:56:40;3.13;;;0.97;;
69053;SDS011;56125;52.242;4.756;2023-06-26T13:01:41;3.00;;;1.00;;
69053;SDS011;56125;52.242;4.756;2023-06-26T13:06:42;2.23;;;1.00;;
69053;SDS011;56125;52.242;4.756;2023-06-26T13:11:43;2.13;;;1.10;;
69053;SDS011;56125;52.242;4.756;2023-06-26T13:16:45;3.07;;;1.10;;
69053;SDS011;56125;52.242;4.756;2023-06-26T13:21:46;3.65;;;1.08;;
69053;SDS011;56125;52.242;4.756;2023-06-26T13:26:47;1.63;;;0.90;;
69053;SDS011;56125;52.242;4.756;2023-06-26T13:31:48;2.17;;;0.90;;
69053;SDS011;56125;52.242;4.756;2023-06-26T13:36:49;4.17;;;1.00;;
69053;SDS011;56125;52.242;4.756;2023-06-26T13:41:50;3.13;;;1.30;;
69053;SDS011;56125;52.242;4.756;2023-06-26T13:46:51;2.20;;;1.00;;
69053;SDS011;56125;52.242;4.756;2023-06-26T13:51:53;2.88;;;1.10;;
69053;SDS011;56125;52.242;4.756;2023-06-26T13:56:54;3.60;;;1.00;;
69053;SDS011;56125;52.242;4.756;2023-06-26T14:01:58;5.00;;;1.25;;
69053;SDS011;56125;52.242;4.756;2023-06-26T14:06:59;3.87;;;1.70;;
69053;SDS011;56125;52.242;4.756;2023-06-26T14:12:00;5.82;;;1.67;;
69053;SDS011;56125;52.242;4.756;2023-06-26T14:17:01;2.17;;;1.17;;
69053;SDS011;56125;52.242;4.756;2023-06-26T14:22:02;4.22;;;1.45;;
69053;SDS011;56125;52.242;4.756;2023-06-26T14:27:04;2.63;;;1.13;;
69053;SDS011;56125;52.242;4.756;2023-06-26T14:32:05;1.70;;;1.08;;
69053;SDS011;56125;52.242;4.756;2023-06-26T14:37:07;5.03;;;1.10;;
69053;SDS011;56125;52.242;4.756;2023-06-26T14:42:08;3.95;;;1.33;;
69053;SDS011;56125;52.242;4.756;2023-06-26T14:47:10;3.70;;;1.10;;
69053;SDS011;56125;52.242;4.756;2023-06-26T14:52:11;2.45;;;1.20;;
69053;SDS011;56125;52.242;4.756;2023-06-26T14:57:12;4.83;;;1.30;;
69053;SDS011;56125;52.242;4.756;2023-06-26T15:02:13;3.45;;;1.25;;
69053;SDS011;56125;52.242;4.756;2023-06-26T15:07:14;2.43;;;1.20;;
69053;SDS011;56125;52.242;4.756;2023-06-26T15:12:15;3.40;;;1.25;;
69053;SDS011;56125;52.242;4.756;2023-06-26T15:17:16;2.20;;;1.10;;
69053;SDS011;56125;52.242;4.756;2023-06-26T15:22:17;3.28;;;1.13;;
69053;SDS011;56125;52.242;4.756;2023-06-26T15:27:19;3.63;;;0.93;;
69053;SDS011;56125;52.242;4.756;2023-06-26T15:32:20;6.38;;;1.30;;
69053;SDS011;56125;52.242;4.756;2023-06-26T15:37:21;4.80;;;1.37;;
69053;SDS011;56125;52.242;4.756;2023-06-26T15:42:26;3.45;;;1.67;;
69053;SDS011;56125;52.242;4.756;2023-06-26T15:47:29;5.73;;;1.40;;
69053;SDS011;56125;52.242;4.756;2023-06-26T15:52:30;4.30;;;1.20;;
69053;SDS011;56125;52.242;4.756;2023-06-26T15:57:31;7.90;;;1.60;;
69053;SDS011;56125;52.242;4.756;2023-06-26T16:02:32;5.85;;;1.65;;
69053;SDS011;56125;52.242;4.756;2023-06-26T16:07:33;4.00;;;1.27;;
69053;SDS011;56125;52.242;4.756;2023-06-26T16:12:34;3.33;;;1.35;;
69053;SDS011;56125;52.242;4.756;2023-06-26T16:17:35;3.73;;;1.10;;
69053;SDS011;56125;52.242;4.756;2023-06-26T16:22:36;3.58;;;1.45;;
69053;SDS011;56125;52.242;4.756;2023-06-26T16:27:37;7.27;;;1.00;;
69053;SDS011;56125;52.242;4.756;2023-06-26T16:32:38;3.55;;;0.93;;
69053;SDS011;56125;52.242;4.756;2023-06-26T16:37:39;2.10;;;0.97;;
69053;SDS011;56125;52.242;4.756;2023-06-26T16:42:40;6.57;;;1.58;;
69053;SDS011;56125;52.242;4.756;2023-06-26T16:47:41;2.37;;;1.30;;
69053;SDS011;56125;52.242;4.756;2023-06-26T16:52:42;4.60;;;1.08;;
69053;SDS011;56125;52.242;4.756;2023-06-26T16:57:44;3.37;;;0.90;;
69053;SDS011;56125;52.242;4.756;2023-06-26T17:02:45;2.70;;;1.35;;
69053;SDS011;56125;52.242;4.756;2023-06-26T17:07:46;3.43;;;1.40;;
69053;SDS011;56125;52.242;4.756;2023-06-26T17:12:47;2.67;;;1.20;;
69053;SDS011;56125;52.242;4.756;2023-06-26T17:17:48;5.30;;;1.30;;
69053;SDS011;56125;52.242;4.756;2023-06-26T17:22:49;5.28;;;1.10;;
69053;SDS011;56125;52.242;4.756;2023-06-26T17:27:50;2.40;;;1.10;;
69053;SDS011;56125;52.242;4.756;2023-06-26T17:32:51;3.53;;;1.13;;
69053;SDS011;56125;52.242;4.756;2023-06-26T17:37:54;5.33;;;1.20;;
69053;SDS011;56125;52.242;4.756;2023-06-26T17:42:55;3.90;;;1.40;;
69053;SDS011;56125;52.242;4.756;2023-06-26T17:47:56;2.47;;;1.20;;
69053;SDS011;56125;52.242;4.756;2023-06-26T17:52:57;6.97;;;1.10;;
69053;SDS011;56125;52.242;4.756;2023-06-26T17:57:59;7.17;;;1.40;;
69053;SDS011;56125;52.242;4.756;2023-06-26T18:03:00;3.88;;;0.90;;
69053;SDS011;56125;52.242;4.756;2023-06-26T18:08:03;4.43;;;1.47;;
69053;SDS011;56125;52.242;4.756;2023-06-26T18:13:04;5.00;;;1.13;;
69053;SDS011;56125;52.242;4.756;2023-06-26T18:18:05;2.83;;;1.20;;
69053;SDS011;56125;52.242;4.756;2023-06-26T18:23:06;2.25;;;1.10;;
69053;SDS011;56125;52.242;4.756;2023-06-26T18:28:07;6.73;;;1.30;;
69053;SDS011;56125;52.242;4.756;2023-06-26T18:33:08;4.43;;;1.50;;
69053;SDS011;56125;52.242;4.756;2023-06-26T18:38:10;5.93;;;1.17;;
69053;SDS011;56125;52.242;4.756;2023-06-26T18:43:11;3.88;;;1.30;;
69053;SDS011;56125;52.242;4.756;2023-06-26T18:48:12;4.57;;;1.47;;
69053;SDS011;56125;52.242;4.756;2023-06-26T18:53:14;2.83;;;1.10;;
69053;SDS011;56125;52.242;4.756;2023-06-26T18:58:15;3.10;;;1.43;;
69053;SDS011;56125;52.242;4.756;2023-06-26T19:03:16;3.67;;;0.90;;
69053;SDS011;56125;52.242;4.756;2023-06-26T19:08:17;2.93;;;1.20;;
69053;SDS011;56125;52.242;4.756;2023-06-26T19:13:18;3.63;;;1.20;;
69053;SDS011;56125;52.242;4.756;2023-06-26T19:18:19;5.47;;;1.30;;
69053;SDS011;56125;52.242;4.756;2023-06-26T19:23:20;6.47;;;1.60;;
69053;SDS011;56125;52.242;4.756;2023-06-26T19:28:21;4.93;;;1.40;;
69053;SDS011;56125;52.242;4.756;2023-06-26T19:33:22;3.15;;;1.25;;
69053;SDS011;56125;52.242;4.756;2023-06-26T19:38:23;4.27;;;1.40;;
69053;SDS011;56125;52.242;4.756;2023-06-26T19:43:24;6.85;;;1.88;;
69053;SDS011;56125;52.242;4.756;2023-06-26T19:48:25;8.63;;;2.13;;
69053;SDS011;56125;52.242;4.756;2023-06-26T19:53:26;3.97;;;1.85;;
69053;SDS011;56125;52.242;4.756;2023-06-26T19:58:28;8.20;;;1.60;;
69053;SDS011;56125;52.242;4.756;2023-06-26T20:03:29;4.63;;;1.90;;
69053;SDS011;56125;52.242;4.756;2023-06-26T20:08:30;3.17;;;1.70;;
69053;SDS011;56125;52.242;4.756;2023-06-26T20:13:31;5.68;;;1.45;;
69053;SDS011;56125;52.242;4.756;2023-06-26T20:18:32;5.47;;;1.83;;
69053;SDS011;56125;52.242;4.756;2023-06-26T20:23:33;3.92;;;1.60;;
69053;SDS011;56125;52.242;4.756;2023-06-26T20:28:34;4.77;;;1.57;;
69053;SDS011;56125;52.242;4.756;2023-06-26T20:33:35;3.78;;;1.55;;
69053;SDS011;56125;52.242;4.756;2023-06-26T20:38:36;4.87;;;2.00;;
69053;SDS011;56125;52.242;4.756;2023-06-26T20:43:37;4.28;;;1.60;;
69053;SDS011;56125;52.242;4.756;2023-06-26T20:48:39;5.53;;;1.60;;
69053;SDS011;56125;52.242;4.756;2023-06-26T20:53:40;6.28;;;1.65;;
69053;SDS011;56125;52.242;4.756;2023-06-26T20:58:41;7.13;;;2.07;;
69053;SDS011;56125;52.242;4.756;2023-06-26T21:03:42;5.50;;;1.75;;
69053;SDS011;56125;52.242;4.756;2023-06-26T21:08:43;12.20;;;1.60;;
69053;SDS011;56125;52.242;4.756;2023-06-26T21:13:44;6.88;;;1.20;;
69053;SDS011;56125;52.242;4.756;2023-06-26T21:18:45;4.73;;;1.67;;
69053;SDS011;56125;52.242;4.756;2023-06-26T21:23:46;2.42;;;1.30;;
69053;SDS011;56125;52.242;4.756;2023-06-26T21:28:47;6.30;;;1.73;;
69053;SDS011;56125;52.242;4.756;2023-06-26T21:33:48;4.45;;;1.75;;
69053;SDS011;56125;52.242;4.756;2023-06-26T21:38:49;3.60;;;1.37;;
69053;SDS011;56125;52.242;4.756;2023-06-26T21:43:50;4.65;;;1.75;;
69053;SDS011;56125;52.242;4.756;2023-06-26T21:48:51;4.27;;;1.80;;
69053;SDS011;56125;52.242;4.756;2023-06-26T21:53:52;3.53;;;1.38;;
69053;SDS011;56125;52.242;4.756;2023-06-26T21:58:53;3.60;;;1.70;;
69053;SDS011;56125;52.242;4.756;2023-06-26T22:03:54;4.68;;;1.67;;
69053;SDS011;56125;52.242;4.756;2023-06-26T22:08:55;4.03;;;1.60;;
69053;SDS011;56125;52.242;4.756;2023-06-26T22:13:56;5.13;;;1.77;;
69053;SDS011;56125;52.242;4.756;2023-06-26T22:18:57;7.40;;;1.97;;
69053;SDS011;56125;52.242;4.756;2023-06-26T22:23:58;4.88;;;1.60;;
69053;SDS011;56125;52.242;4.756;2023-06-26T22:28:59;7.10;;;2.23;;
69053;SDS011;56125;52.242;4.756;2023-06-26T22:34:00;5.32;;;2.08;;
69053;SDS011;56125;52.242;4.756;2023-06-26T22:39:02;3.77;;;1.83;;
69053;SDS011;56125;52.242;4.756;2023-06-26T22:44:05;3.63;;;1.45;;
69053;SDS011;56125;52.242;4.756;2023-06-26T22:49:06;6.23;;;1.80;;
69053;SDS011;56125;52.242;4.756;2023-06-26T22:54:07;6.10;;;1.85;;
69053;SDS011;56125;52.242;4.756;2023-06-26T22:59:08;5.00;;;1.77;;
69053;SDS011;56125;52.242;4.756;2023-06-26T23:04:09;6.07;;;2.13;;
69053;SDS011;56125;52.242;4.756;2023-06-26T23:09:10;5.97;;;1.53;;
69053;SDS011;56125;52.242;4.756;2023-06-26T23:14:11;10.02;;;1.75;;
69053;SDS011;56125;52.242;4.756;2023-06-26T23:19:12;6.47;;;2.10;;
69053;SDS011;56125;52.242;4.756;2023-06-26T23:24:14;5.28;;;1.52;;
69053;SDS011;56125;52.242;4.756;2023-06-26T23:29:15;6.30;;;2.07;;
69053;SDS011;56125;52.242;4.756;2023-06-26T23:34:18;5.55;;;1.80;;
69053;SDS011;56125;52.242;4.756;2023-06-26T23:39:20;5.03;;;1.37;;
69053;SDS011;56125;52.242;4.756;2023-06-26T23:44:21;5.60;;;1.90;;
69053;SDS011;56125;52.242;4.756;2023-06-26T23:49:22;7.77;;;2.00;;
69053;SDS011;56125;52.242;4.756;2023-06-26T23:54:23;4.55;;;1.45;;
69053;SDS011;56125;52.242;4.756;2023-06-26T23:59:24;3.27;;;1.60;;
